createdAt,value
2018-03-14T00:01:17.581Z,100629.58
2018-03-14T00:03:46.639Z,100623.53
2018-03-14T00:06:14.928Z,100631.13
2018-03-14T00:08:43.496Z,100629.17
2018-03-14T00:11:11.763Z,100633.16
2018-03-14T00:13:40.055Z,100631.22
2018-03-14T00:16:08.523Z,100646.73
2018-03-14T00:18:37.418Z,100646.81
2018-03-14T00:21:05.717Z,100642.89
2018-03-14T00:23:34.200Z,100648.35
2018-03-14T00:26:02.579Z,100651.80
2018-03-14T00:28:30.873Z,100646.56
2018-03-14T00:30:59.176Z,100656.98
2018-03-14T00:33:28.499Z,100650.49
2018-03-14T00:35:56.778Z,100652.91
2018-03-14T00:38:25.061Z,100649.87
2018-03-14T00:40:53.691Z,100648.99
2018-03-14T00:43:22.153Z,100645.48
2018-03-14T00:45:50.854Z,100647.40
2018-03-14T00:48:19.503Z,100645.94
2018-03-14T00:50:49.176Z,100644.94
2018-03-14T00:53:18.339Z,100643.67
2018-03-14T00:55:46.708Z,100644.00
2018-03-14T00:58:15.021Z,100643.67
2018-03-14T01:00:44.129Z,100653.39
2018-03-14T01:03:13.296Z,100652.12
2018-03-14T01:05:41.586Z,100648.71
2018-03-14T01:08:09.886Z,100647.41
2018-03-14T01:10:39.427Z,100654.17
2018-03-14T01:13:07.808Z,100649.39
2018-03-14T01:15:36.100Z,100652.77
2018-03-14T01:18:04.424Z,100656.31
2018-03-14T01:20:33.571Z,100665.50
2018-03-14T01:23:02.069Z,100666.28
2018-03-14T01:25:31.044Z,100660.50
2018-03-14T01:27:59.357Z,100663.84
2018-03-14T01:30:27.673Z,100664.72
2018-03-14T01:32:56.522Z,100667.70
2018-03-14T01:35:25.217Z,100672.73
2018-03-14T01:37:53.558Z,100679.78
2018-03-14T01:40:21.883Z,100679.95
2018-03-14T01:42:51.095Z,100677.00
2018-03-14T01:45:20.138Z,100673.98
2018-03-14T01:47:48.448Z,100676.38
2018-03-14T01:50:17.132Z,100679.14
2018-03-14T01:52:45.418Z,100676.38
2018-03-14T01:55:13.715Z,100676.80
2018-03-14T01:57:43.074Z,100680.27
2018-03-14T02:00:11.393Z,100683.55
2018-03-14T02:02:39.832Z,100681.60
2018-03-14T02:05:09.020Z,100685.48
2018-03-14T02:07:37.901Z,100686.06
2018-03-14T02:10:06.291Z,100693.25
2018-03-14T02:12:34.668Z,100694.70
2018-03-14T02:15:02.971Z,100698.86
2018-03-14T02:17:31.276Z,100702.07
2018-03-14T02:20:01.258Z,100698.89
2018-03-14T02:22:30.483Z,100702.49
2018-03-14T02:24:59.076Z,100711.61
2018-03-14T02:27:27.513Z,100711.02
2018-03-14T02:29:56.780Z,100715.07
2018-03-14T02:32:25.068Z,100720.98
2018-03-14T02:34:54.183Z,100723.77
2018-03-14T02:37:22.469Z,100728.28
2018-03-14T02:39:50.756Z,100730.96
2018-03-14T02:42:19.424Z,100735.54
2018-03-14T02:44:48.040Z,100731.38
2018-03-14T02:47:16.435Z,100737.90
2018-03-14T02:49:45.196Z,100741.74
2018-03-14T02:52:13.880Z,100741.36
2018-03-14T02:54:42.279Z,100739.31
2018-03-14T02:57:11.029Z,100744.77
2018-03-14T02:59:39.308Z,100749.28
2018-03-14T03:02:07.588Z,100745.23
2018-03-14T03:04:36.572Z,100752.80
2018-03-14T03:07:04.829Z,100757.94
2018-03-14T03:09:33.978Z,100764.33
2018-03-14T03:12:02.257Z,100759.32
2018-03-14T03:14:30.559Z,100761.89
2018-03-14T03:16:58.869Z,100762.98
2018-03-14T03:19:27.891Z,100759.91
2018-03-14T03:21:56.168Z,100765.09
2018-03-14T03:24:24.489Z,100761.34
2018-03-14T03:26:53.358Z,100770.42
2018-03-14T03:29:21.637Z,100774.20
2018-03-14T03:31:50.840Z,100772.80
2018-03-14T03:34:19.129Z,100779.03
2018-03-14T03:36:47.615Z,100781.52
2018-03-14T03:39:16.487Z,100783.06
2018-03-14T03:41:44.758Z,100787.81
2018-03-14T03:44:13.136Z,100793.44
2018-03-14T03:46:42.113Z,100808.12
2018-03-14T03:49:10.398Z,100805.58
2018-03-14T03:51:38.912Z,100813.36
2018-03-14T03:54:07.212Z,100814.25
2018-03-14T03:56:35.486Z,100810.55
2018-03-14T03:59:03.809Z,100816.95
2018-03-14T04:01:32.076Z,100818.52
2018-03-14T04:04:00.964Z,100818.22
2018-03-14T04:06:29.269Z,100822.34
2018-03-14T04:08:57.539Z,100827.15
2018-03-14T04:11:25.961Z,100829.31
2018-03-14T04:13:54.455Z,100829.19
2018-03-14T04:16:23.504Z,100830.42
2018-03-14T04:18:51.767Z,100838.28
2018-03-14T04:21:20.463Z,100835.05
2018-03-14T04:23:48.840Z,100835.62
2018-03-14T04:26:17.105Z,100836.83
2018-03-14T04:28:45.379Z,100846.80
2018-03-14T04:31:13.680Z,100847.03
2018-03-14T04:33:41.950Z,100843.03
2018-03-14T04:36:10.229Z,100849.73
2018-03-14T04:38:39.380Z,100849.73
2018-03-14T04:41:08.409Z,100848.34
2018-03-14T04:43:37.349Z,100845.41
2018-03-14T04:46:05.647Z,100851.47
2018-03-14T04:48:34.811Z,100846.30
2018-03-14T04:51:03.209Z,100850.42
2018-03-14T04:53:32.084Z,100850.34
2018-03-14T04:56:00.949Z,100863.48
2018-03-14T04:58:29.336Z,100861.52
2018-03-14T05:00:57.936Z,100858.44
2018-03-14T05:03:26.192Z,100865.83
2018-03-14T05:05:55.204Z,100860.78
2018-03-14T05:08:23.600Z,100870.84
2018-03-14T05:10:52.293Z,100869.61
2018-03-14T05:13:20.687Z,100880.36
2018-03-14T05:15:49.068Z,100883.05
2018-03-14T05:18:17.348Z,100884.13
2018-03-14T05:20:45.884Z,100886.05
2018-03-14T05:23:14.268Z,100887.70
2018-03-14T05:25:42.900Z,100892.13
2018-03-14T05:28:11.166Z,100890.91
2018-03-14T05:30:39.508Z,100895.67
2018-03-14T05:33:07.764Z,100907.93
2018-03-14T05:35:36.872Z,100912.28
2018-03-14T05:38:05.256Z,100909.83
2018-03-14T05:40:33.541Z,100914.59
2018-03-14T05:43:02.488Z,100913.45
2018-03-14T05:45:31.562Z,100911.86
2018-03-14T05:48:00.140Z,100916.29
2018-03-14T05:50:28.393Z,100911.36
2018-03-14T05:52:56.661Z,100913.06
2018-03-14T05:55:25.592Z,100914.44
2018-03-14T05:57:53.964Z,100918.14
2018-03-14T06:00:22.235Z,100917.18
2018-03-14T06:02:50.532Z,100917.59
2018-03-14T06:05:19.430Z,100922.64
2018-03-14T06:07:47.724Z,100928.31
2018-03-14T06:10:16.756Z,100925.84
2018-03-14T06:12:45.503Z,100933.27
2018-03-14T06:15:14.592Z,100935.89
2018-03-14T06:17:42.868Z,100943.92
2018-03-14T06:20:11.432Z,100943.92
2018-03-14T06:22:39.751Z,100945.59
2018-03-14T06:25:08.208Z,100952.61
2018-03-14T06:27:36.540Z,100952.55
2018-03-14T06:30:04.809Z,100961.30
2018-03-14T06:32:33.120Z,100957.22
2018-03-14T06:35:01.496Z,100967.16
2018-03-14T06:37:29.766Z,100969.72
2018-03-14T06:39:58.035Z,100973.61
2018-03-14T06:42:27.529Z,100977.92
2018-03-14T06:44:55.795Z,100974.00
2018-03-14T06:47:24.088Z,100975.55
2018-03-14T06:49:52.729Z,100981.06
2018-03-14T06:52:21.001Z,100982.31
2018-03-14T06:54:50.152Z,100980.01
2018-03-14T06:57:18.455Z,100978.00
2018-03-14T07:00:04.323Z,100980.55
2018-03-14T07:02:46.400Z,100985.77
2018-03-14T07:05:33.202Z,100996.14
2018-03-14T07:08:02.271Z,100996.61
2018-03-14T07:10:30.884Z,101001.42
2018-03-14T07:12:59.920Z,101007.79
2018-03-14T07:15:28.197Z,101006.80
2018-03-14T07:17:56.497Z,101011.68
2018-03-14T07:20:24.822Z,101012.91
2018-03-14T07:22:53.870Z,101010.98
2018-03-14T07:25:22.137Z,101015.23
2018-03-14T07:27:50.427Z,101014.00
2018-03-14T07:30:18.696Z,101014.55
2018-03-14T07:32:47.931Z,101019.33
2018-03-14T07:35:16.258Z,101017.75
2018-03-14T07:37:44.516Z,101015.66
2018-03-14T07:40:12.780Z,101012.88
2018-03-14T07:42:41.925Z,101020.75
2018-03-14T07:45:10.810Z,101022.64
2018-03-14T07:47:39.081Z,101028.47
2018-03-14T07:50:07.463Z,101030.89
2018-03-14T07:52:35.833Z,101030.23
2018-03-14T07:55:04.448Z,101035.86
2018-03-14T07:57:32.730Z,101031.38
2018-03-14T08:00:01.712Z,101032.86
2018-03-14T08:02:29.977Z,101025.42
2018-03-14T08:04:58.484Z,101020.76
2018-03-14T08:07:26.760Z,101017.31
2018-03-14T08:09:55.758Z,101024.05
2018-03-14T08:12:24.915Z,101027.19
2018-03-14T08:14:53.179Z,101026.56
2018-03-14T08:17:21.465Z,101030.59
2018-03-14T08:19:49.785Z,101040.09
2018-03-14T08:22:18.056Z,101037.03
2018-03-14T08:24:46.326Z,101045.83
2018-03-14T08:27:15.824Z,101042.47
2018-03-14T08:29:44.843Z,101043.20
2018-03-14T08:34:40.759Z,101043.27
2018-03-14T08:37:09.099Z,101043.55
2018-03-14T08:39:37.322Z,101045.44
2018-03-14T08:42:05.609Z,101051.41
2018-03-14T08:44:33.880Z,101047.70
2018-03-14T08:47:02.143Z,101057.72
2018-03-14T08:49:30.476Z,101057.16
2018-03-14T08:52:00.037Z,101060.47
2018-03-14T08:54:29.063Z,101062.90
2018-03-14T08:56:57.507Z,101069.47
2018-03-14T08:59:25.932Z,101069.52
2018-03-14T09:01:54.927Z,101066.41
2018-03-14T09:04:23.262Z,101057.02
2018-03-14T09:06:51.659Z,101066.86
2018-03-14T09:09:19.940Z,101071.00
2018-03-14T09:11:48.300Z,101072.06
2018-03-14T09:14:16.581Z,101081.17
2018-03-14T09:16:44.961Z,101076.55
2018-03-14T09:19:13.449Z,101073.97
2018-03-14T09:21:42.561Z,101080.75
2018-03-14T09:24:10.839Z,101076.80
2018-03-14T09:26:39.137Z,101081.95
2018-03-14T09:29:07.396Z,101080.86
2018-03-14T09:31:35.754Z,101084.07
2018-03-14T09:34:04.051Z,101090.42
2018-03-14T09:36:32.692Z,101090.99
2018-03-14T09:39:00.999Z,101096.25
2018-03-14T09:41:29.268Z,101091.80
2018-03-14T09:43:58.269Z,101095.16
2018-03-14T09:46:26.552Z,101103.88
2018-03-14T09:48:54.818Z,101104.94
2018-03-14T09:51:23.243Z,101092.09
2018-03-14T09:53:51.490Z,101096.59
2018-03-14T09:56:19.760Z,101104.32
2018-03-14T09:58:48.069Z,101108.61
2018-03-14T10:01:16.326Z,101111.16
2018-03-14T10:03:45.427Z,101114.83
2018-03-14T10:06:14.171Z,101112.63
2018-03-14T10:08:42.621Z,101122.28
2018-03-14T10:11:11.427Z,101114.36
2018-03-14T10:13:40.664Z,101121.73
2018-03-14T10:16:08.976Z,101121.05
2018-03-14T10:18:38.032Z,101134.26
2018-03-14T10:21:06.291Z,101133.95
2018-03-14T10:23:34.593Z,101130.59
2018-03-14T10:26:02.859Z,101123.02
2018-03-14T10:28:31.118Z,101124.67
2018-03-14T10:31:00.243Z,101122.86
2018-03-14T10:33:28.535Z,101123.23
2018-03-14T10:35:57.329Z,101119.98
2018-03-14T10:38:25.624Z,101117.16
2018-03-14T10:40:54.750Z,101119.64
2018-03-14T10:43:22.965Z,101129.47
2018-03-14T10:45:51.861Z,101130.00
2018-03-14T10:48:20.132Z,101133.81
2018-03-14T10:50:48.400Z,101132.53
2018-03-14T10:53:17.300Z,101131.38
2018-03-14T10:55:45.556Z,101134.48
2018-03-14T10:58:13.824Z,101128.58
2018-03-14T11:00:48.502Z,101126.20
2018-03-14T11:03:18.571Z,101122.75
2018-03-14T11:05:47.970Z,101125.33
2018-03-14T11:08:17.108Z,101131.07
2018-03-14T11:10:45.364Z,101129.73
2018-03-14T11:13:13.880Z,101136.95
2018-03-14T11:15:43.406Z,101132.69
2018-03-14T11:18:11.724Z,101134.83
2018-03-14T11:20:40.039Z,101133.25
2018-03-14T11:23:08.833Z,101124.16
2018-03-14T11:25:37.760Z,101123.73
2018-03-14T11:28:06.870Z,101126.08
2018-03-14T11:30:35.196Z,101127.80
2018-03-14T11:33:03.449Z,101129.92
2018-03-14T11:35:31.752Z,101127.91
2018-03-14T11:38:00.148Z,101134.39
2018-03-14T11:40:28.400Z,101127.50
2018-03-14T11:42:56.655Z,101131.14
2018-03-14T11:45:25.045Z,101129.95
2018-03-14T11:47:53.364Z,101132.34
2018-03-14T11:50:21.729Z,101132.70
2018-03-14T11:52:50.636Z,101132.11
2018-03-14T11:55:18.896Z,101137.67
2018-03-14T11:57:47.156Z,101134.75
2018-03-14T12:00:16.467Z,101134.16
2018-03-14T12:02:44.732Z,101132.69
2018-03-14T12:05:12.988Z,101130.94
2018-03-14T12:07:42.232Z,101133.18
2018-03-14T12:10:10.544Z,101134.25
2018-03-14T12:12:39.216Z,101139.21
2018-03-14T12:15:07.689Z,101138.59
2018-03-14T12:17:35.978Z,101136.27
2018-03-14T12:20:04.243Z,101135.64
2018-03-14T12:22:32.724Z,101132.45
2018-03-14T12:25:01.808Z,101140.61
2018-03-14T12:27:30.416Z,101133.87
2018-03-14T12:29:58.727Z,101131.69
2018-03-14T12:32:27.758Z,101129.34
2018-03-14T12:34:56.013Z,101120.63
2018-03-14T12:37:24.312Z,101116.92
2018-03-14T12:39:52.696Z,101115.49
2018-03-14T12:42:21.836Z,101120.80
2018-03-14T12:44:50.679Z,101115.94
2018-03-14T12:47:18.940Z,101117.95
2018-03-14T12:49:47.204Z,101116.66
2018-03-14T12:52:16.250Z,101124.89
2018-03-14T12:54:44.519Z,101119.49
2018-03-14T12:57:12.838Z,101121.75
2018-03-14T12:59:42.007Z,101116.91
2018-03-14T13:02:10.800Z,101111.81
2018-03-14T13:04:39.512Z,101109.70
2018-03-14T13:07:08.244Z,101117.71
2018-03-14T13:09:36.533Z,101118.47
2018-03-14T13:12:05.331Z,101118.56
2018-03-14T13:14:33.695Z,101109.85
2018-03-14T13:17:02.017Z,101114.87
2018-03-14T13:19:30.235Z,101116.92
2018-03-14T13:21:58.503Z,101107.00
2018-03-14T13:24:27.619Z,101108.23
2018-03-14T13:26:56.704Z,101112.06
2018-03-14T13:29:25.728Z,101112.86
2018-03-14T13:31:54.202Z,101110.97
2018-03-14T13:34:22.489Z,101105.45
2018-03-14T13:36:51.209Z,101111.42
2018-03-14T13:39:19.875Z,101113.16
2018-03-14T13:41:48.467Z,101111.87
2018-03-14T13:44:16.827Z,101113.60
2018-03-14T13:46:45.209Z,101111.13
2018-03-14T13:49:13.476Z,101114.91
2018-03-14T13:51:41.751Z,101116.27
2018-03-14T13:54:10.554Z,101116.65
2018-03-14T13:56:38.826Z,101109.67
2018-03-14T13:59:08.548Z,101111.09
2018-03-14T14:01:37.244Z,101110.18
2018-03-14T14:04:05.616Z,101114.32
2018-03-14T14:06:34.930Z,101109.42
2018-03-14T14:09:03.981Z,101112.84
2018-03-14T14:11:32.196Z,101110.79
2018-03-14T14:14:01.399Z,101103.41
2018-03-14T14:16:29.716Z,101102.80
2018-03-14T14:18:58.744Z,101098.36
2018-03-14T14:21:27.561Z,101101.84
2018-03-14T14:23:55.924Z,101099.22
2018-03-14T14:26:24.309Z,101104.11
2018-03-14T14:28:52.581Z,101096.47
2018-03-14T14:31:22.329Z,101094.55
2018-03-14T14:33:51.117Z,101097.67
2018-03-14T14:36:20.036Z,101104.45
2018-03-14T14:38:49.183Z,101104.87
2018-03-14T14:41:17.451Z,101098.52
2018-03-14T14:43:45.709Z,101093.99
2018-03-14T14:46:14.200Z,101089.70
2018-03-14T14:48:42.473Z,101095.27
2018-03-14T14:51:11.211Z,101094.91
2018-03-14T14:53:39.560Z,101094.52
2018-03-14T14:56:07.925Z,101089.08
2018-03-14T14:58:36.236Z,101093.25
2018-03-14T15:01:05.120Z,101084.87
2018-03-14T15:03:33.387Z,101086.25
2018-03-14T15:06:02.509Z,101089.89
2018-03-14T15:08:31.172Z,101088.00
2018-03-14T15:10:59.482Z,101089.96
2018-03-14T15:13:28.220Z,101082.23
2018-03-14T15:15:56.475Z,101080.19
2018-03-14T15:18:25.602Z,101076.80
2018-03-14T15:20:54.038Z,101083.89
2018-03-14T15:23:22.353Z,101080.86
2018-03-14T15:25:50.643Z,101075.32
2018-03-14T15:28:19.023Z,101076.33
2018-03-14T15:30:47.299Z,101074.73
2018-03-14T15:33:15.577Z,101073.45
2018-03-14T15:35:43.960Z,101070.07
2018-03-14T15:38:12.283Z,101068.39
2018-03-14T15:40:40.565Z,101069.37
2018-03-14T15:43:08.929Z,101077.05
2018-03-14T15:45:38.004Z,101075.12
2018-03-14T15:48:06.268Z,101079.44
2018-03-14T15:50:34.566Z,101074.20
2018-03-14T15:53:02.842Z,101071.30
2018-03-14T15:55:31.964Z,101071.88
2018-03-14T15:58:01.080Z,101066.25
2018-03-14T16:00:30.124Z,101064.28
2018-03-14T16:02:58.500Z,101064.81
2018-03-14T16:05:26.812Z,101067.49
2018-03-14T16:07:55.328Z,101066.61
2018-03-14T16:10:23.593Z,101067.44
2018-03-14T16:12:52.632Z,101067.83
2018-03-14T16:15:21.638Z,101065.56
2018-03-14T16:17:49.901Z,101067.01
2018-03-14T16:20:18.179Z,101066.95
2018-03-14T16:22:46.732Z,101070.48
2018-03-14T16:25:16.161Z,101067.41
2018-03-14T16:27:44.449Z,101070.47
2018-03-14T16:30:12.717Z,101070.12
2018-03-14T16:32:41.010Z,101076.27
2018-03-14T16:35:09.575Z,101075.14
2018-03-14T16:40:05.536Z,101074.53
2018-03-14T16:42:33.836Z,101071.39
2018-03-14T16:45:02.261Z,101075.23
2018-03-14T16:47:30.532Z,101072.52
2018-03-14T16:49:58.835Z,101073.81
2018-03-14T16:52:27.541Z,101069.90
2018-03-14T16:54:55.824Z,101068.05
2018-03-14T16:57:24.925Z,101069.92
2018-03-14T16:59:53.238Z,101071.67
2018-03-14T17:02:22.494Z,101073.93
2018-03-14T17:04:51.981Z,101079.79
2018-03-14T17:07:21.092Z,101072.30
2018-03-14T17:09:49.364Z,101073.11
2018-03-14T17:12:17.645Z,101073.85
2018-03-14T17:14:46.025Z,101077.98
2018-03-14T17:17:14.493Z,101085.82
2018-03-14T17:19:42.757Z,101082.88
2018-03-14T17:22:11.034Z,101084.02
2018-03-14T17:24:39.362Z,101071.52
2018-03-14T17:27:08.361Z,101073.16
2018-03-14T17:29:37.056Z,101067.64
2018-03-14T17:32:05.749Z,101066.89
2018-03-14T17:34:34.085Z,101069.33
2018-03-14T17:37:02.664Z,101058.25
2018-03-14T17:39:30.939Z,101058.28
2018-03-14T17:41:59.219Z,101052.42
2018-03-14T17:44:27.541Z,101053.17
2018-03-14T17:46:56.240Z,101060.44
2018-03-14T17:49:25.297Z,101064.46
2018-03-14T17:51:53.888Z,101062.20
2018-03-14T17:54:22.659Z,101067.31
2018-03-14T17:56:50.941Z,101070.46
2018-03-14T17:59:19.220Z,101081.58
2018-03-14T18:01:47.518Z,101076.75
2018-03-14T18:04:16.560Z,101073.81
2018-03-14T18:06:44.856Z,101067.59
2018-03-14T18:09:13.509Z,101067.31
2018-03-14T18:11:42.641Z,101075.03
2018-03-14T18:14:10.984Z,101065.23
2018-03-14T18:16:40.722Z,101067.32
2018-03-14T18:19:09.692Z,101069.66
2018-03-14T18:21:38.724Z,101071.33
2018-03-14T18:24:06.999Z,101065.15
2018-03-14T18:26:35.309Z,101069.08
2018-03-14T18:29:04.352Z,101067.84
2018-03-14T18:31:34.349Z,101068.34
2018-03-14T18:34:03.384Z,101060.96
2018-03-14T18:36:31.673Z,101063.27
2018-03-14T18:39:00.088Z,101057.94
2018-03-14T18:41:28.389Z,101061.77
2018-03-14T18:43:57.432Z,101060.91
2018-03-14T18:46:25.833Z,101073.27
2018-03-14T18:48:54.530Z,101063.41
2018-03-14T18:51:23.106Z,101075.95
2018-03-14T18:53:51.424Z,101074.02
2018-03-14T18:56:19.769Z,101066.18
2018-03-14T18:58:48.585Z,101066.19
2018-03-14T19:01:17.670Z,101074.79
2018-03-14T19:03:45.964Z,101069.23
2018-03-14T19:06:15.097Z,101071.63
2018-03-14T19:08:43.404Z,101072.78
2018-03-14T19:11:12.034Z,101073.70
2018-03-14T19:13:42.475Z,101078.34
2018-03-14T19:16:10.774Z,101069.20
2018-03-14T19:18:39.057Z,101078.19
2018-03-14T19:21:08.089Z,101074.52
2018-03-14T19:23:36.716Z,101070.31
2018-03-14T19:26:05.105Z,101062.91
2018-03-14T19:28:33.839Z,101070.44
2018-03-14T19:31:02.136Z,101068.23
2018-03-14T19:33:31.811Z,101063.90
2018-03-14T19:36:00.182Z,101066.88
2018-03-14T19:38:28.478Z,101066.81
2018-03-14T19:40:56.779Z,101069.34
2018-03-14T19:43:25.871Z,101071.92
2018-03-14T19:45:55.516Z,101081.17
2018-03-14T19:48:23.786Z,101083.35
2018-03-14T19:50:52.631Z,101082.78
2018-03-14T19:53:22.713Z,101086.88
2018-03-14T19:55:51.803Z,101084.64
2018-03-14T19:58:20.179Z,101080.87
2018-03-14T20:00:48.580Z,101079.34
2018-03-14T20:03:16.884Z,101080.87
2018-03-14T20:05:46.156Z,101081.25
2018-03-14T20:08:14.575Z,101078.76
2018-03-14T20:10:44.419Z,101074.09
2018-03-14T20:13:12.737Z,101075.94
2018-03-14T20:15:41.943Z,101070.17
2018-03-14T20:18:10.294Z,101068.49
2018-03-14T20:20:38.602Z,101068.34
2018-03-14T20:23:07.160Z,101070.38
2018-03-14T20:25:35.500Z,101069.41
2018-03-14T20:28:04.570Z,101067.28
2018-03-14T20:30:33.065Z,101065.98
2018-03-14T20:33:02.599Z,101064.45
2018-03-14T20:35:31.130Z,101070.66
2018-03-14T20:37:59.416Z,101066.61
2018-03-14T20:40:28.198Z,101066.38
2018-03-14T20:42:56.501Z,101064.31
2018-03-14T20:45:24.781Z,101063.36
2018-03-14T20:47:53.842Z,101049.05
2018-03-14T20:50:22.312Z,101054.61
2018-03-14T20:52:50.589Z,101050.72
2018-03-14T20:55:18.980Z,101046.20
2018-03-14T20:57:47.273Z,101043.93
2018-03-14T21:00:15.628Z,101047.47
2018-03-14T21:02:44.601Z,101050.74
2018-03-14T21:05:13.619Z,101047.67
2018-03-14T21:07:42.008Z,101047.20
2018-03-14T21:10:10.407Z,101046.27
2018-03-14T21:12:38.680Z,101039.34
2018-03-14T21:15:07.853Z,101039.42
2018-03-14T21:17:36.465Z,101038.65
2018-03-14T21:20:04.899Z,101038.76
2018-03-14T21:22:33.196Z,101032.39
2018-03-14T21:25:02.515Z,101034.48
2018-03-14T21:27:30.891Z,101026.53
2018-03-14T21:30:00.584Z,101030.35
2018-03-14T21:32:28.880Z,101023.80
2018-03-14T21:34:57.205Z,101024.53
2018-03-14T21:37:26.248Z,101015.89
2018-03-14T21:39:54.876Z,101014.62
2018-03-14T21:42:23.972Z,101012.42
2018-03-14T21:44:52.262Z,101020.25
2018-03-14T21:47:21.439Z,101023.69
2018-03-14T21:49:49.780Z,101019.17
2018-03-14T21:52:18.101Z,101024.80
2018-03-14T21:54:46.355Z,101027.61
2018-03-14T21:57:19.610Z,101028.80
2018-03-14T21:59:47.864Z,101026.48
2018-03-14T22:02:17.204Z,101030.16
2018-03-14T22:04:46.601Z,101025.56
2018-03-14T22:07:15.785Z,101024.59
2018-03-14T22:09:43.980Z,101014.54
2018-03-14T22:12:12.867Z,101019.55
2018-03-14T22:14:41.192Z,101012.45
2018-03-14T22:17:09.484Z,101015.05
2018-03-14T22:19:37.764Z,101007.22
2018-03-14T22:22:06.810Z,101006.29
2018-03-14T22:24:35.530Z,101002.05
2018-03-14T22:27:03.872Z,100995.88
2018-03-14T22:29:32.152Z,100998.84
2018-03-14T22:32:00.492Z,100992.52
2018-03-14T22:34:29.521Z,100992.64
2018-03-14T22:36:57.835Z,100989.63
2018-03-14T22:39:26.143Z,100988.02
2018-03-14T22:41:55.415Z,100982.98
2018-03-14T22:44:23.715Z,100987.47
2018-03-14T22:46:53.642Z,100993.52
2018-03-14T22:49:23.928Z,100994.75
2018-03-14T22:51:52.390Z,100995.26
2018-03-14T22:54:20.681Z,100998.34
2018-03-14T22:56:48.957Z,101004.55
2018-03-14T22:59:17.244Z,100987.50
2018-03-14T23:01:46.016Z,100979.47
2018-03-14T23:04:14.309Z,100981.53
2018-03-14T23:06:42.660Z,100970.26
2018-03-14T23:09:11.782Z,100969.72
2018-03-14T23:11:40.046Z,100958.81
2018-03-14T23:14:09.453Z,100958.95
2018-03-14T23:16:38.135Z,100964.99
2018-03-14T23:19:06.432Z,100958.85
2018-03-14T23:21:34.821Z,100962.83
2018-03-14T23:24:03.992Z,100953.77
2018-03-14T23:26:32.379Z,100963.05
2018-03-14T23:29:00.660Z,100963.16
2018-03-14T23:31:30.112Z,100952.89
2018-03-14T23:33:59.184Z,100956.88
2018-03-14T23:36:28.241Z,100963.91
2018-03-14T23:38:57.884Z,100962.80
2018-03-14T23:41:26.192Z,100967.59
2018-03-14T23:43:55.687Z,100959.70
2018-03-14T23:46:25.465Z,100965.57
2018-03-14T23:48:53.724Z,100970.66
2018-03-14T23:51:22.096Z,100970.23
2018-03-14T23:53:50.396Z,100973.73
2018-03-14T23:56:18.767Z,100977.17
2018-03-14T23:58:47.804Z,100979.80
